createdAt,value
2023-03-05T00:04:17.868Z,20.60
2023-03-05T00:09:11.033Z,20.45
2023-03-05T00:14:07.092Z,20.55
2023-03-05T00:19:01.114Z,20.56
2023-03-05T00:23:57.227Z,20.55
2023-03-05T00:28:52.286Z,20.41
2023-03-05T00:33:45.276Z,20.43
2023-03-05T00:38:37.143Z,20.47
2023-03-05T00:43:31.142Z,20.39
2023-03-05T00:48:24.343Z,20.37
2023-03-05T00:53:17.752Z,20.51
2023-03-05T00:58:10.750Z,20.36
2023-03-05T01:03:03.554Z,20.33
2023-03-05T01:07:56.612Z,20.48
2023-03-05T01:12:50.993Z,20.49
2023-03-05T01:17:44.499Z,20.41
2023-03-05T01:22:36.981Z,20.45
2023-03-05T01:27:30.037Z,20.41
2023-03-05T01:32:22.851Z,20.56
2023-03-05T01:37:15.015Z,20.52
2023-03-05T01:42:07.891Z,20.58
2023-03-05T01:47:00.910Z,20.45
2023-03-05T01:52:10.135Z,20.58
2023-03-05T01:57:08.906Z,20.46
2023-03-05T02:02:04.368Z,20.58
2023-03-05T02:06:57.495Z,20.46
2023-03-05T02:11:51.813Z,20.50
2023-03-05T02:16:44.386Z,20.55
2023-03-05T02:21:41.572Z,20.60
2023-03-05T02:26:35.135Z,20.60
2023-03-05T02:31:27.756Z,20.59
2023-03-05T02:36:22.041Z,20.59
2023-03-05T02:41:16.642Z,20.51
2023-03-05T02:46:10.639Z,20.59
2023-03-05T02:51:07.099Z,20.44
2023-03-05T02:56:01.768Z,20.61
2023-03-05T03:00:56.389Z,20.48
2023-03-05T03:05:50.453Z,20.47
2023-03-05T03:10:43.600Z,20.59
2023-03-05T03:15:38.814Z,20.36
2023-03-05T03:20:33.258Z,20.52
2023-03-05T03:25:28.031Z,20.60
2023-03-05T03:30:21.033Z,20.55
2023-03-05T03:35:14.605Z,20.54
2023-03-05T03:40:09.944Z,20.42
2023-03-05T03:45:02.738Z,20.50
2023-03-05T03:49:55.997Z,20.48
2023-03-05T03:54:49.573Z,20.48
2023-03-05T03:59:41.836Z,20.45
2023-03-05T04:04:35.298Z,20.19
2023-03-05T04:09:28.157Z,20.45
2023-03-05T04:14:21.011Z,20.42
2023-03-05T04:19:14.621Z,20.45
2023-03-05T04:24:09.174Z,20.28
2023-03-05T04:29:01.790Z,20.45
2023-03-05T04:33:55.567Z,20.45
2023-03-05T04:38:48.200Z,20.47
2023-03-05T04:43:41.410Z,20.45
2023-03-05T04:48:34.336Z,20.45
2023-03-05T04:53:27.896Z,20.37
2023-03-05T04:58:20.970Z,20.38
2023-03-05T05:03:13.884Z,20.35
2023-03-05T05:08:06.406Z,20.35
2023-03-05T05:13:00.265Z,20.50
2023-03-05T05:17:53.350Z,20.39
2023-03-05T05:22:46.323Z,20.39
2023-03-05T05:27:40.058Z,20.37
2023-03-05T05:32:32.967Z,20.35
2023-03-05T05:37:26.623Z,20.47
2023-03-05T05:42:21.910Z,20.36
2023-03-05T05:47:18.821Z,20.38
2023-03-05T05:52:10.970Z,20.29
2023-03-05T05:57:04.326Z,20.53
2023-03-05T06:01:57.137Z,20.41
2023-03-05T06:06:51.045Z,20.48
2023-03-05T06:11:43.863Z,20.51
2023-03-05T06:16:37.483Z,20.52
2023-03-05T06:21:31.554Z,20.47
2023-03-05T06:26:25.226Z,20.49
2023-03-05T06:31:25.912Z,20.42
2023-03-05T06:36:19.655Z,20.40
2023-03-05T06:41:15.797Z,20.39
2023-03-05T06:46:13.189Z,20.42
2023-03-05T06:51:06.599Z,20.38
2023-03-05T06:56:01.827Z,20.39
2023-03-05T07:00:54.250Z,20.37
2023-03-05T07:05:47.814Z,20.36
2023-03-05T07:10:42.774Z,20.38
2023-03-05T07:15:39.324Z,20.37
2023-03-05T07:20:31.736Z,20.39
2023-03-05T07:25:24.587Z,20.39
2023-03-05T07:30:17.698Z,20.24
2023-03-05T07:35:11.498Z,20.39
2023-03-05T07:40:05.087Z,20.37
2023-03-05T07:44:59.062Z,20.23
2023-03-05T07:49:52.819Z,20.33
2023-03-05T07:54:45.508Z,20.31
2023-03-05T07:59:39.950Z,20.35
2023-03-05T08:04:32.677Z,20.37
2023-03-05T08:09:25.958Z,20.11
2023-03-05T08:14:17.967Z,20.35
2023-03-05T08:19:11.903Z,20.25
2023-03-05T08:24:07.518Z,20.19
2023-03-05T08:29:00.776Z,20.31
2023-03-05T08:33:56.790Z,20.23
2023-03-05T08:38:49.226Z,20.25
2023-03-05T08:43:42.630Z,20.27
2023-03-05T08:48:35.622Z,20.36
2023-03-05T08:53:29.400Z,20.38
2023-03-05T08:58:21.860Z,20.28
2023-03-05T09:03:15.219Z,20.28
2023-03-05T09:08:08.779Z,20.21
2023-03-05T09:13:01.059Z,20.30
2023-03-05T09:17:53.862Z,20.23
2023-03-05T09:22:46.810Z,20.38
2023-03-05T09:27:40.263Z,20.38
2023-03-05T09:32:33.153Z,20.33
2023-03-05T09:37:26.785Z,20.32
2023-03-05T09:42:38.184Z,20.28
2023-03-05T09:47:36.526Z,20.29
2023-03-05T09:52:40.692Z,20.28
2023-03-05T09:57:42.713Z,20.11
2023-03-05T10:02:42.108Z,20.15
2023-03-05T10:07:41.231Z,20.27
2023-03-05T10:12:45.098Z,20.28
2023-03-05T10:18:09.649Z,20.28
2023-03-05T10:23:08.788Z,20.30
2023-03-05T10:28:28.475Z,20.18
2023-03-05T10:33:47.121Z,20.29
2023-03-05T10:39:00.642Z,20.30
2023-03-05T10:44:01.208Z,20.30
2023-03-05T10:48:56.368Z,20.30
2023-03-05T10:53:52.770Z,20.31
2023-03-05T10:58:46.755Z,20.30
2023-03-05T11:04:04.349Z,20.32
2023-03-05T11:09:19.151Z,20.31
2023-03-05T11:14:31.687Z,20.32
2023-03-05T11:19:33.849Z,20.31
2023-03-05T11:24:26.407Z,20.09
2023-03-05T11:29:35.636Z,20.17
2023-03-05T11:34:36.061Z,20.19
2023-03-05T11:39:32.149Z,20.27
2023-03-05T11:44:34.661Z,20.10
2023-03-05T11:49:35.136Z,20.14
2023-03-05T11:54:55.956Z,20.26
2023-03-05T11:59:56.709Z,20.30
2023-03-05T12:04:50.026Z,20.26
2023-03-05T12:09:48.344Z,20.28
2023-03-05T12:15:09.814Z,20.29
2023-03-05T12:20:45.690Z,20.27
2023-03-05T12:25:55.470Z,20.26
2023-03-05T12:30:47.861Z,20.26
2023-03-05T12:35:49.515Z,20.25
2023-03-05T12:40:42.995Z,20.18
2023-03-05T12:45:40.787Z,20.22
2023-03-05T12:50:39.362Z,20.26
2023-03-05T12:55:48.801Z,20.26
2023-03-05T13:00:44.959Z,20.21
2023-03-05T13:05:39.854Z,20.05
2023-03-05T13:10:33.764Z,20.17
2023-03-05T13:15:27.494Z,20.00
2023-03-05T13:20:22.869Z,20.21
2023-03-05T13:25:21.580Z,20.20
2023-03-05T13:30:28.403Z,19.99
2023-03-05T13:35:22.506Z,20.21
2023-03-05T13:40:27.366Z,20.21
2023-03-05T13:45:28.678Z,20.17
2023-03-05T13:50:29.395Z,20.19
2023-03-05T13:55:22.148Z,20.22
2023-03-05T14:00:35.402Z,20.18
2023-03-05T14:05:29.076Z,20.11
2023-03-05T14:10:35.655Z,20.22
2023-03-05T14:15:34.877Z,20.26
2023-03-05T14:20:32.429Z,20.24
2023-03-05T14:25:37.233Z,20.29
2023-03-05T14:30:31.207Z,20.30
2023-03-05T14:35:26.387Z,20.17
2023-03-05T14:40:22.544Z,20.18
2023-03-05T14:45:19.662Z,20.18
2023-03-05T14:50:20.995Z,20.23
2023-03-05T14:55:17.332Z,20.32
2023-03-05T15:00:27.059Z,20.33
2023-03-05T15:05:19.951Z,20.33
2023-03-05T15:10:16.084Z,20.35
2023-03-05T15:15:08.842Z,20.20
2023-03-05T15:20:01.255Z,20.36
2023-03-05T15:24:54.792Z,20.32
2023-03-05T15:29:47.565Z,20.37
2023-03-05T15:34:40.050Z,20.33
2023-03-05T15:39:34.645Z,20.35
2023-03-05T15:44:27.695Z,20.37
2023-03-05T15:49:22.122Z,20.13
2023-03-05T15:54:15.590Z,20.37
2023-03-05T15:59:15.137Z,20.24
2023-03-05T16:04:08.707Z,20.36
2023-03-05T16:09:05.276Z,20.35
2023-03-05T16:14:01.008Z,20.22
2023-03-05T16:18:54.385Z,20.38
2023-03-05T16:23:49.701Z,20.25
2023-03-05T16:28:42.591Z,20.22
2023-03-05T16:33:36.754Z,20.29
2023-03-05T16:38:31.043Z,20.33
2023-03-05T16:43:25.181Z,20.32
2023-03-05T16:48:18.607Z,20.23
2023-03-05T16:53:11.475Z,20.13
2023-03-05T16:58:05.212Z,20.27
2023-03-05T17:02:59.217Z,20.38
2023-03-05T17:07:54.119Z,20.40
2023-03-05T17:12:49.094Z,20.25
2023-03-05T17:17:42.285Z,20.37
2023-03-05T17:22:36.466Z,20.35
2023-03-05T17:27:30.446Z,20.23
2023-03-05T17:32:23.695Z,20.32
2023-03-05T17:37:16.941Z,20.37
2023-03-05T17:42:09.498Z,20.26
2023-03-05T17:47:01.998Z,20.21
2023-03-05T17:51:54.757Z,20.32
2023-03-05T17:56:48.761Z,20.35
2023-03-05T18:01:41.832Z,20.26
2023-03-05T18:06:35.506Z,20.33
2023-03-05T18:11:30.835Z,20.23
2023-03-05T18:16:25.980Z,20.28
2023-03-05T18:21:21.944Z,20.09
2023-03-05T18:26:15.368Z,20.29
2023-03-05T18:31:09.262Z,20.20
2023-03-05T18:36:02.099Z,20.41
2023-03-05T18:40:57.132Z,20.27
2023-03-05T18:45:52.879Z,20.47
2023-03-05T18:50:45.965Z,20.39
2023-03-05T18:55:38.777Z,20.42
2023-03-05T19:00:33.105Z,20.44
2023-03-05T19:05:27.456Z,20.51
2023-03-05T19:10:23.089Z,20.54
2023-03-05T19:15:17.962Z,20.43
2023-03-05T19:20:16.664Z,20.45
2023-03-05T19:25:09.929Z,20.58
2023-03-05T19:30:04.972Z,20.63
2023-03-05T19:34:58.960Z,20.69
2023-03-05T19:39:51.503Z,20.71
2023-03-05T19:44:44.940Z,20.75
2023-03-05T19:49:37.627Z,20.76
2023-03-05T19:54:31.059Z,20.49
2023-03-05T19:59:23.822Z,20.73
2023-03-05T20:04:20.457Z,20.70
2023-03-05T20:09:15.327Z,20.74
2023-03-05T20:14:09.893Z,20.51
2023-03-05T20:19:04.733Z,20.75
2023-03-05T20:24:00.201Z,20.79
2023-03-05T20:28:54.544Z,20.77
2023-03-05T20:33:47.537Z,20.63
2023-03-05T20:38:40.902Z,20.79
2023-03-05T20:43:38.139Z,20.66
2023-03-05T20:48:33.600Z,20.83
2023-03-05T20:53:28.107Z,20.78
2023-03-05T20:58:20.848Z,20.69
2023-03-05T21:03:15.154Z,20.66
2023-03-05T21:08:08.373Z,20.69
2023-03-05T21:13:01.687Z,20.58
2023-03-05T21:17:53.806Z,20.68
2023-03-05T21:22:47.125Z,20.59
2023-03-05T21:27:40.494Z,20.57
2023-03-05T21:32:35.016Z,20.71
2023-03-05T21:37:28.357Z,20.77
2023-03-05T21:42:22.189Z,20.75
2023-03-05T21:47:15.565Z,20.77
2023-03-05T21:52:12.643Z,20.64
2023-03-05T21:57:06.493Z,20.78
2023-03-05T22:02:00.396Z,20.56
2023-03-05T22:06:54.058Z,20.82
2023-03-05T22:11:48.180Z,20.83
2023-03-05T22:16:42.209Z,20.73
2023-03-05T22:21:36.949Z,20.76
2023-03-05T22:26:39.073Z,20.76
2023-03-05T22:31:33.611Z,20.77
2023-03-05T22:36:27.702Z,20.82
2023-03-05T22:41:22.250Z,20.78
2023-03-05T22:46:19.567Z,20.87
2023-03-05T22:51:13.561Z,20.91
2023-03-05T22:56:11.545Z,20.88
2023-03-05T23:01:12.509Z,20.94
2023-03-05T23:06:06.085Z,20.96
2023-03-05T23:11:01.711Z,20.89
2023-03-05T23:15:55.161Z,20.95
2023-03-05T23:20:48.249Z,20.96
2023-03-05T23:25:41.877Z,20.82
2023-03-05T23:30:37.982Z,20.82
2023-03-05T23:35:32.020Z,20.95
2023-03-05T23:40:28.119Z,20.94
2023-03-05T23:45:22.248Z,20.87
2023-03-05T23:50:23.734Z,20.84
2023-03-05T23:55:29.163Z,20.92
